Airport View

Enter AWOS ICAO identifier for current METAR.

ex. KFNL

KTRK 011316Z AUTO 00000KT 5SM HZ CLR 01/M02 A3044 RMK AO2

1 Oct 2020 13:35

Frequency: 118.0

Phone: 530-587-4599

Other Area AWOS: KCXP - KRNO - KRTS - KTVL

TAF KTRK 011120Z 0112/0212 VRB03KT 5SM HZ SCT045 FM011600 VRB03KT 6SM HZ SKC FM012000 13008KT P6SM SKC